Time;durP1;ratioP1;P1;durP2;ratioP2;P2;SDS_P1;SDS_P2;PMS_P1;PMS_P2;Temp;Humidity;BMP_temperature;BMP_pressure;BME280_temperature;BME280_humidity;BME280_pressure;Samples;Min_cycle;Max_cycle;Signal;HPM_P1;HPM_P2
2022/03/26 00:00:26;;;;;;;34.60;17.53;;;;;;;;;;5067829;28;20276;-77
2022/03/26 00:02:52;;;;;;;27.87;17.00;;;;;;;;;;5072447;28;20204;-77
2022/03/26 00:05:19;;;;;;;28.53;18.23;;;;;;;;;;5073560;28;20180;-77
2022/03/26 00:07:45;;;;;;;28.23;17.23;;;;;;;;;;5072418;28;20266;-77
2022/03/26 00:10:12;;;;;;;27.93;17.63;;;;;;;;;;5073619;28;20188;-77
2022/03/26 00:12:39;;;;;;;34.17;18.93;;;;;;;;;;5070875;28;20645;-77
2022/03/26 00:15:06;;;;;;;31.83;18.97;;;;;;;;;;5070473;28;20204;-77
2022/03/26 00:17:32;;;;;;;30.83;17.67;;;;;;;;;;5069792;28;20223;-77
2022/03/26 00:19:58;;;;;;;29.63;17.40;;;;;;;;;;5072083;28;20174;-77
2022/03/26 00:22:24;;;;;;;25.87;17.87;;;;;;;;;;5070454;28;20236;-76
2022/03/26 00:24:50;;;;;;;28.13;17.70;;;;;;;;;;5072700;28;20177;-77
2022/03/26 00:27:17;;;;;;;27.93;17.43;;;;;;;;;;5067671;28;20882;-77
2022/03/26 00:29:44;;;;;;;31.73;18.53;;;;;;;;;;5062889;28;20181;-78
2022/03/26 00:32:10;;;;;;;28.53;18.20;;;;;;;;;;5069553;28;20280;-78
2022/03/26 00:34:37;;;;;;;28.77;17.47;;;;;;;;;;5064128;28;20277;-78
2022/03/26 00:37:03;;;;;;;27.57;17.07;;;;;;;;;;5064614;28;20174;-78
2022/03/26 00:39:29;;;;;;;33.10;18.33;;;;;;;;;;5071176;28;20652;-77
2022/03/26 00:41:55;;;;;;;31.37;17.70;;;;;;;;;;5071510;28;20223;-78
2022/03/26 00:44:22;;;;;;;27.63;18.20;;;;;;;;;;5074478;28;20683;-78
2022/03/26 00:46:49;;;;;;;31.83;17.20;;;;;;;;;;5055105;28;20661;-77
2022/03/26 00:49:15;;;;;;;28.67;18.23;;;;;;;;;;5074539;28;20186;-79
2022/03/26 00:51:41;;;;;;;37.67;17.53;;;;;;;;;;5074210;28;20192;-80
2022/03/26 00:54:11;;;;;;;28.33;16.90;;;;;;;;;;5062813;28;20213;-75
2022/03/26 00:56:38;;;;;;;26.23;17.17;;;;;;;;;;5071742;28;20177;-75
2022/03/26 00:59:04;;;;;;;27.23;17.43;;;;;;;;;;5080493;28;20185;-76
2022/03/26 01:01:31;;;;;;;27.20;16.70;;;;;;;;;;5072949;28;20217;-76
2022/03/26 01:03:58;;;;;;;28.57;18.03;;;;;;;;;;5072451;28;20669;-76
2022/03/26 01:06:24;;;;;;;28.97;17.07;;;;;;;;;;5073722;28;20192;-77
2022/03/26 01:08:50;;;;;;;35.20;17.53;;;;;;;;;;5067699;28;20207;-78
2022/03/26 01:11:17;;;;;;;28.10;16.40;;;;;;;;;;5072941;28;20181;-78
2022/03/26 01:13:44;;;;;;;26.90;16.70;;;;;;;;;;5069104;28;20591;-77
2022/03/26 01:16:10;;;;;;;26.03;16.83;;;;;;;;;;5070712;28;20182;-78
2022/03/26 01:18:36;;;;;;;30.50;17.27;;;;;;;;;;5065906;28;20185;-78
2022/03/26 01:21:03;;;;;;;26.97;17.00;;;;;;;;;;5078440;28;20551;-78
2022/03/26 01:23:29;;;;;;;27.83;17.50;;;;;;;;;;5063383;28;20342;-77
2022/03/26 01:25:56;;;;;;;29.97;18.17;;;;;;;;;;5070674;28;20684;-78
2022/03/26 01:28:22;;;;;;;27.70;17.80;;;;;;;;;;5065920;28;20193;-78
2022/03/26 01:30:48;;;;;;;29.87;17.87;;;;;;;;;;5071261;28;20178;-77
2022/03/26 01:33:14;;;;;;;28.27;17.63;;;;;;;;;;5069327;28;20216;-78
2022/03/26 01:35:41;;;;;;;34.30;20.30;;;;;;;;;;5069720;28;20272;-78
2022/03/26 01:38:07;;;;;;;26.53;17.67;;;;;;;;;;5070555;28;20900;-77
2022/03/26 01:40:34;;;;;;;29.53;16.73;;;;;;;;;;5065736;28;20661;-77
2022/03/26 01:43:01;;;;;;;27.67;16.37;;;;;;;;;;5068950;28;20205;-78
2022/03/26 01:45:27;;;;;;;25.97;15.60;;;;;;;;;;5068852;28;20215;-78
2022/03/26 01:47:54;;;;;;;28.03;16.73;;;;;;;;;;5070869;28;20240;-78
2022/03/26 01:50:20;;;;;;;27.37;16.17;;;;;;;;;;5064152;28;20695;-77
2022/03/26 01:52:46;;;;;;;26.13;15.87;;;;;;;;;;5069504;28;20543;-78
2022/03/26 01:55:12;;;;;;;28.33;16.07;;;;;;;;;;5072570;28;20208;-78
2022/03/26 01:57:39;;;;;;;24.53;15.30;;;;;;;;;;5066932;28;20185;-77
2022/03/26 02:00:08;;;;;;;24.20;14.90;;;;;;;;;;5072830;28;20272;-77
2022/03/26 02:02:43;;;;;;;27.43;15.70;;;;;;;;;;5053248;28;20383;-77
2022/03/26 02:05:16;;;;;;;25.63;15.13;;;;;;;;;;5074337;28;20617;-78
2022/03/26 02:07:46;;;;;;;25.30;15.00;;;;;;;;;;5071088;28;20529;-77
2022/03/26 02:10:13;;;;;;;24.53;15.37;;;;;;;;;;5055357;28;20802;-78
2022/03/26 02:12:40;;;;;;;26.43;16.10;;;;;;;;;;5061336;28;20323;-77
2022/03/26 02:15:07;;;;;;;25.93;16.10;;;;;;;;;;5074717;28;20205;-78
2022/03/26 02:17:37;;;;;;;26.33;15.90;;;;;;;;;;5070928;28;20174;-78
2022/03/26 02:20:07;;;;;;;23.93;15.30;;;;;;;;;;5072157;28;20204;-77
2022/03/26 02:22:34;;;;;;;29.30;17.43;;;;;;;;;;5073625;28;20215;-78
2022/03/26 02:25:00;;;;;;;23.43;15.83;;;;;;;;;;5071660;28;20192;-78
2022/03/26 02:27:27;;;;;;;22.37;15.10;;;;;;;;;;5089350;28;20287;-78
2022/03/26 02:29:54;;;;;;;27.43;17.17;;;;;;;;;;5073850;28;20277;-77
2022/03/26 02:32:23;;;;;;;23.47;15.33;;;;;;;;;;5074315;28;20212;-77
2022/03/26 02:34:50;;;;;;;23.33;15.50;;;;;;;;;;5072606;28;20205;-77
2022/03/26 02:37:16;;;;;;;25.47;15.27;;;;;;;;;;5050835;28;20189;-77
2022/03/26 02:39:43;;;;;;;25.27;15.30;;;;;;;;;;5072778;28;20173;-78
2022/03/26 02:42:09;;;;;;;30.63;16.27;;;;;;;;;;5069943;28;20201;-78
2022/03/26 02:44:35;;;;;;;25.20;14.63;;;;;;;;;;5067375;28;20181;-77
2022/03/26 02:47:01;;;;;;;24.30;15.33;;;;;;;;;;5066191;28;20185;-77
2022/03/26 02:49:28;;;;;;;23.03;15.27;;;;;;;;;;5067995;28;20724;-78
2022/03/26 02:51:54;;;;;;;24.07;14.73;;;;;;;;;;5060642;28;20182;-77
2022/03/26 02:54:21;;;;;;;23.80;15.37;;;;;;;;;;5071924;28;20212;-78
2022/03/26 02:56:47;;;;;;;26.43;15.97;;;;;;;;;;5067896;28;20215;-78
2022/03/26 02:59:13;;;;;;;28.80;16.43;;;;;;;;;;5069948;28;20177;-78
2022/03/26 03:01:39;;;;;;;26.53;15.70;;;;;;;;;;5071375;28;20243;-77
2022/03/26 03:04:06;;;;;;;30.43;17.03;;;;;;;;;;5064381;28;20647;-78
2022/03/26 03:06:33;;;;;;;28.07;17.07;;;;;;;;;;5070128;28;20181;-78
2022/03/26 03:08:59;;;;;;;27.57;16.67;;;;;;;;;;5066262;28;20236;-78
2022/03/26 03:11:25;;;;;;;31.57;17.03;;;;;;;;;;5071384;28;20174;-77
2022/03/26 03:13:51;;;;;;;27.00;15.80;;;;;;;;;;5068256;28;20287;-78
2022/03/26 03:16:18;;;;;;;27.00;15.73;;;;;;;;;;5068058;28;20224;-78
2022/03/26 03:18:44;;;;;;;30.20;17.50;;;;;;;;;;5068735;28;20177;-78
2022/03/26 03:21:11;;;;;;;26.03;15.53;;;;;;;;;;5065751;28;20234;-78
2022/03/26 03:23:38;;;;;;;24.30;15.13;;;;;;;;;;5062246;28;20217;-78
2022/03/26 03:26:04;;;;;;;25.13;15.37;;;;;;;;;;5069675;28;20181;-78
2022/03/26 03:28:30;;;;;;;25.33;15.70;;;;;;;;;;5064876;28;20626;-78
2022/03/26 03:30:57;;;;;;;25.07;15.50;;;;;;;;;;5069997;28;20238;-78
2022/03/26 03:33:23;;;;;;;27.03;15.70;;;;;;;;;;5065512;28;20264;-78
2022/03/26 03:35:49;;;;;;;25.07;15.27;;;;;;;;;;5068660;28;20641;-78
2022/03/26 03:38:15;;;;;;;26.77;16.33;;;;;;;;;;5069341;28;20181;-78
2022/03/26 03:40:42;;;;;;;24.83;14.80;;;;;;;;;;5068512;28;20224;-78
2022/03/26 03:43:08;;;;;;;25.93;15.23;;;;;;;;;;5068097;28;20633;-77
2022/03/26 03:45:34;;;;;;;27.57;15.17;;;;;;;;;;5067451;28;20178;-78
2022/03/26 03:48:01;;;;;;;25.00;15.00;;;;;;;;;;5066445;28;20173;-78
2022/03/26 03:50:27;;;;;;;25.53;15.00;;;;;;;;;;5072254;28;20501;-78
2022/03/26 03:52:53;;;;;;;21.80;14.17;;;;;;;;;;5069967;28;20212;-78
2022/03/26 03:55:20;;;;;;;26.17;16.47;;;;;;;;;;5056604;28;20684;-78
2022/03/26 03:57:46;;;;;;;25.10;15.63;;;;;;;;;;5073512;28;20182;-78
2022/03/26 04:00:13;;;;;;;29.13;15.33;;;;;;;;;;5073370;28;20193;-77
2022/03/26 04:02:40;;;;;;;28.73;16.43;;;;;;;;;;5072102;28;20244;-78
2022/03/26 04:05:09;;;;;;;24.57;14.83;;;;;;;;;;5072622;28;20191;-78
2022/03/26 04:07:39;;;;;;;24.37;13.83;;;;;;;;;;5072633;28;20640;-78
2022/03/26 04:10:07;;;;;;;24.23;14.63;;;;;;;;;;5071794;28;20189;-78
2022/03/26 04:12:40;;;;;;;25.67;15.60;;;;;;;;;;5074975;28;20261;-77
2022/03/26 04:15:07;;;;;;;23.20;14.47;;;;;;;;;;5066279;28;20221;-77
2022/03/26 04:17:33;;;;;;;23.87;14.07;;;;;;;;;;5068331;28;20215;-77
2022/03/26 04:20:10;;;;;;;26.13;14.90;;;;;;;;;;5054310;28;20205;-78
2022/03/26 04:22:37;;;;;;;25.47;15.87;;;;;;;;;;5070486;28;20264;-78
2022/03/26 04:25:04;;;;;;;25.83;15.33;;;;;;;;;;5063208;28;20196;-78
2022/03/26 04:27:31;;;;;;;26.63;16.17;;;;;;;;;;5074259;28;20196;-78
2022/03/26 04:29:57;;;;;;;23.70;14.13;;;;;;;;;;5073663;28;20193;-77
2022/03/26 04:32:23;;;;;;;27.17;16.27;;;;;;;;;;5073014;28;20212;-78
2022/03/26 04:34:49;;;;;;;28.97;16.37;;;;;;;;;;5051577;28;20209;-77
2022/03/26 04:37:16;;;;;;;28.23;15.27;;;;;;;;;;5066022;28;20188;-78
2022/03/26 04:39:42;;;;;;;25.87;15.00;;;;;;;;;;5075526;28;20181;-77
2022/03/26 04:42:08;;;;;;;27.93;16.30;;;;;;;;;;5070639;28;20263;-78
2022/03/26 04:44:34;;;;;;;29.13;17.37;;;;;;;;;;5071055;28;20676;-77
2022/03/26 04:47:00;;;;;;;27.90;16.20;;;;;;;;;;5073624;28;20199;-78
2022/03/26 04:49:26;;;;;;;25.30;15.37;;;;;;;;;;5074666;28;20207;-77
2022/03/26 04:51:53;;;;;;;26.63;14.90;;;;;;;;;;5071537;28;20177;-77
2022/03/26 04:54:19;;;;;;;25.30;15.90;;;;;;;;;;5073253;28;20267;-78
2022/03/26 04:56:45;;;;;;;23.03;15.13;;;;;;;;;;5070645;28;20173;-77
2022/03/26 04:59:11;;;;;;;24.83;15.90;;;;;;;;;;5070082;28;20200;-77
2022/03/26 05:01:37;;;;;;;24.87;16.47;;;;;;;;;;5070817;28;20200;-77
2022/03/26 05:04:04;;;;;;;25.87;15.53;;;;;;;;;;5072968;28;20220;-78
2022/03/26 05:06:30;;;;;;;29.97;16.97;;;;;;;;;;5055653;28;20717;-78
2022/03/26 05:08:56;;;;;;;26.17;16.27;;;;;;;;;;5069280;28;20197;-77
2022/03/26 05:11:22;;;;;;;27.80;16.33;;;;;;;;;;5067505;28;20197;-78
2022/03/26 05:13:49;;;;;;;30.10;16.30;;;;;;;;;;5072380;28;20259;-78
2022/03/26 05:16:15;;;;;;;26.53;16.00;;;;;;;;;;5071908;28;20184;-77
2022/03/26 05:18:41;;;;;;;28.07;16.17;;;;;;;;;;5068767;28;20201;-78
2022/03/26 05:21:08;;;;;;;27.17;15.80;;;;;;;;;;5071424;28;20191;-76
2022/03/26 05:23:35;;;;;;;25.60;16.53;;;;;;;;;;5072869;28;20606;-77
2022/03/26 05:26:01;;;;;;;29.80;16.93;;;;;;;;;;5073385;28;20177;-77
2022/03/26 05:28:27;;;;;;;29.57;16.77;;;;;;;;;;5071208;28;20189;-78
2022/03/26 05:30:54;;;;;;;27.53;16.53;;;;;;;;;;5081635;28;20204;-78
2022/03/26 05:33:20;;;;;;;26.17;15.57;;;;;;;;;;5070344;28;20208;-77
2022/03/26 05:35:46;;;;;;;30.83;16.33;;;;;;;;;;5059811;28;20210;-78
2022/03/26 05:38:12;;;;;;;22.90;15.27;;;;;;;;;;5070325;28;20185;-78
2022/03/26 05:40:39;;;;;;;31.87;17.37;;;;;;;;;;5069570;28;20189;-77
2022/03/26 05:43:06;;;;;;;31.50;17.17;;;;;;;;;;5072338;28;20732;-77
2022/03/26 05:45:32;;;;;;;27.40;16.00;;;;;;;;;;5070360;28;20660;-77
2022/03/26 05:48:01;;;;;;;32.33;16.30;;;;;;;;;;5051171;28;20231;-77
2022/03/26 05:50:28;;;;;;;24.40;15.43;;;;;;;;;;5071346;28;20185;-77
2022/03/26 05:52:54;;;;;;;26.50;15.13;;;;;;;;;;5071557;28;20213;-77
2022/03/26 05:55:20;;;;;;;28.60;16.63;;;;;;;;;;5072040;28;20838;-77
2022/03/26 05:57:47;;;;;;;27.50;15.70;;;;;;;;;;5074740;28;20178;-77
2022/03/26 06:00:13;;;;;;;29.90;16.50;;;;;;;;;;5066679;28;20196;-78
2022/03/26 06:02:40;;;;;;;29.10;17.03;;;;;;;;;;5071498;28;20294;-77
2022/03/26 06:05:06;;;;;;;26.57;15.87;;;;;;;;;;5072212;28;20189;-78
2022/03/26 06:07:32;;;;;;;28.00;15.97;;;;;;;;;;5073819;28;20207;-78
2022/03/26 06:09:58;;;;;;;27.37;16.60;;;;;;;;;;5071889;28;20189;-77
2022/03/26 06:12:25;;;;;;;27.40;15.30;;;;;;;;;;5073389;28;20208;-77
2022/03/26 06:14:51;;;;;;;24.23;15.40;;;;;;;;;;5082278;28;20202;-78
2022/03/26 06:17:17;;;;;;;23.20;14.87;;;;;;;;;;5071028;28;20182;-79
2022/03/26 06:19:44;;;;;;;27.10;16.50;;;;;;;;;;5063317;28;20203;-79
2022/03/26 06:22:10;;;;;;;24.33;14.93;;;;;;;;;;5067092;28;20630;-79
2022/03/26 06:24:37;;;;;;;27.47;14.90;;;;;;;;;;5068022;28;20184;-79
2022/03/26 06:27:03;;;;;;;28.23;16.50;;;;;;;;;;5070204;28;20184;-79
2022/03/26 06:29:29;;;;;;;31.17;15.90;;;;;;;;;;5072006;28;20185;-80
2022/03/26 06:31:55;;;;;;;27.57;14.67;;;;;;;;;;5069913;28;20181;-79
2022/03/26 06:34:24;;;;;;;25.57;15.07;;;;;;;;;;5067118;28;20248;-78
2022/03/26 06:36:50;;;;;;;26.70;15.10;;;;;;;;;;5071579;28;20185;-79
2022/03/26 06:39:16;;;;;;;27.27;15.87;;;;;;;;;;5070621;28;20185;-79
2022/03/26 06:41:44;;;;;;;26.33;15.70;;;;;;;;;;5068470;28;20577;-79
2022/03/26 06:44:10;;;;;;;29.40;16.23;;;;;;;;;;5081891;28;20205;-79
2022/03/26 06:46:37;;;;;;;28.67;16.30;;;;;;;;;;5068262;28;20189;-79
2022/03/26 06:49:04;;;;;;;29.53;16.87;;;;;;;;;;5069210;28;20185;-80
2022/03/26 06:51:31;;;;;;;30.53;15.83;;;;;;;;;;5074396;28;20293;-79
2022/03/26 06:53:58;;;;;;;27.50;16.07;;;;;;;;;;5073993;28;20225;-79
2022/03/26 06:56:24;;;;;;;29.97;17.10;;;;;;;;;;5073429;28;20185;-80
2022/03/26 06:58:51;;;;;;;24.90;16.47;;;;;;;;;;5071848;28;20222;-78
2022/03/26 07:01:17;;;;;;;28.17;17.47;;;;;;;;;;5070922;28;20268;-80
2022/03/26 07:03:43;;;;;;;31.03;16.73;;;;;;;;;;5072143;28;20241;-79
2022/03/26 07:06:10;;;;;;;30.17;16.70;;;;;;;;;;5077509;28;20287;-79
2022/03/26 07:08:36;;;;;;;25.63;15.80;;;;;;;;;;5071899;28;20272;-80
2022/03/26 07:11:02;;;;;;;27.17;16.03;;;;;;;;;;5071783;28;20625;-80
2022/03/26 07:13:28;;;;;;;29.23;17.73;;;;;;;;;;5071107;28;20197;-80
2022/03/26 07:15:54;;;;;;;29.33;15.80;;;;;;;;;;5061577;28;20657;-80
2022/03/26 07:18:21;;;;;;;25.73;15.57;;;;;;;;;;5074671;28;20794;-79
2022/03/26 07:20:47;;;;;;;28.10;16.90;;;;;;;;;;5054316;28;20174;-77
2022/03/26 07:23:13;;;;;;;27.00;15.97;;;;;;;;;;5073722;28;20208;-80
2022/03/26 07:25:40;;;;;;;28.40;16.97;;;;;;;;;;5076213;28;20181;-79
2022/03/26 07:28:07;;;;;;;26.37;16.43;;;;;;;;;;5052587;28;20185;-80
2022/03/26 07:30:33;;;;;;;27.13;16.87;;;;;;;;;;5075261;28;20193;-80
2022/03/26 07:33:00;;;;;;;31.00;17.63;;;;;;;;;;5073328;28;20197;-81
2022/03/26 07:35:26;;;;;;;30.17;17.63;;;;;;;;;;5058433;28;20304;-78
2022/03/26 07:37:52;;;;;;;29.20;18.53;;;;;;;;;;5075635;28;20177;-83
2022/03/26 07:40:18;;;;;;;28.83;18.10;;;;;;;;;;5040182;28;20190;-83
2022/03/26 07:42:44;;;;;;;25.63;16.67;;;;;;;;;;5085202;28;20205;-84
2022/03/26 07:45:11;;;;;;;28.20;17.13;;;;;;;;;;5072691;28;20184;-83
2022/03/26 07:47:37;;;;;;;30.40;18.37;;;;;;;;;;5051154;28;20212;-84
2022/03/26 07:50:04;;;;;;;29.57;17.30;;;;;;;;;;5070521;28;20220;-83
2022/03/26 07:52:31;;;;;;;33.33;16.90;;;;;;;;;;5059449;28;20233;-82
2022/03/26 07:54:57;;;;;;;27.77;17.93;;;;;;;;;;5051973;28;20209;-77
2022/03/26 07:57:27;;;;;;;28.23;18.17;;;;;;;;;;5070331;28;20188;-78
2022/03/26 07:59:53;;;;;;;29.83;19.10;;;;;;;;;;5066694;28;20692;-82
2022/03/26 08:02:20;;;;;;;27.13;18.50;;;;;;;;;;5070680;28;20197;-79
2022/03/26 08:04:46;;;;;;;32.30;18.20;;;;;;;;;;5069411;28;20604;-78
2022/03/26 08:07:13;;;;;;;28.17;17.07;;;;;;;;;;5071936;28;20204;-78
2022/03/26 08:09:39;;;;;;;26.97;17.23;;;;;;;;;;5071876;28;20181;-78
2022/03/26 08:12:07;;;;;;;31.03;18.57;;;;;;;;;;5068860;28;20189;-79
2022/03/26 08:14:34;;;;;;;33.67;18.77;;;;;;;;;;5072115;28;20619;-76
2022/03/26 08:17:01;;;;;;;29.80;18.37;;;;;;;;;;5075001;28;20240;-78
2022/03/26 08:19:28;;;;;;;29.07;18.07;;;;;;;;;;5073203;28;20193;-78
2022/03/26 08:21:54;;;;;;;30.63;17.40;;;;;;;;;;5058108;28;20189;-78
2022/03/26 08:24:21;;;;;;;25.80;15.70;;;;;;;;;;5068371;28;20264;-79
2022/03/26 08:26:48;;;;;;;29.70;16.63;;;;;;;;;;5069730;28;20185;-76
2022/03/26 08:29:14;;;;;;;29.33;17.63;;;;;;;;;;5069964;28;20660;-78
2022/03/26 08:31:41;;;;;;;31.43;18.03;;;;;;;;;;5068792;28;20714;-78
2022/03/26 08:34:07;;;;;;;27.37;18.13;;;;;;;;;;5068170;28;20241;-78
2022/03/26 08:36:35;;;;;;;33.07;19.37;;;;;;;;;;5072449;28;20310;-79
2022/03/26 08:39:01;;;;;;;27.93;17.90;;;;;;;;;;5070064;28;20185;-79
2022/03/26 08:41:27;;;;;;;33.40;17.73;;;;;;;;;;5067271;28;20178;-79
2022/03/26 08:43:53;;;;;;;30.37;17.60;;;;;;;;;;5070673;28;20223;-79
2022/03/26 08:46:20;;;;;;;28.53;18.13;;;;;;;;;;5052426;28;20255;-79
2022/03/26 08:48:47;;;;;;;31.70;18.80;;;;;;;;;;5052831;28;20196;-79
2022/03/26 08:51:13;;;;;;;30.40;18.97;;;;;;;;;;5066103;28;20220;-79
2022/03/26 08:53:40;;;;;;;30.07;17.87;;;;;;;;;;5068378;28;20201;-79
2022/03/26 08:56:07;;;;;;;32.10;19.10;;;;;;;;;;5068878;28;20264;-79
2022/03/26 08:58:33;;;;;;;27.20;18.73;;;;;;;;;;5075364;28;20209;-79
2022/03/26 09:01:00;;;;;;;27.00;17.70;;;;;;;;;;5066891;28;20221;-79
2022/03/26 09:03:26;;;;;;;33.13;19.57;;;;;;;;;;5072482;28;20668;-79
2022/03/26 09:05:53;;;;;;;26.53;18.10;;;18.10;44.80;;;;;;5070255;28;20809;-79
2022/03/26 09:08:19;;;;;;;30.80;19.57;;;14.10;48.40;;;;;;5067106;28;20182;-79
2022/03/26 09:10:46;;;;;;;29.53;18.17;;;13.90;48.20;;;;;;5069810;28;20214;-79
2022/03/26 09:13:12;;;;;;;31.63;19.07;;;14.00;47.90;;;;;;5070414;28;21328;-79
2022/03/26 09:15:38;;;;;;;32.53;20.37;;;14.10;47.80;;;;;;5068796;28;20213;-79
2022/03/26 09:18:04;;;;;;;33.03;19.93;;;14.20;48.00;;;;;;5069537;28;20186;-79
2022/03/26 09:20:31;;;;;;;32.57;19.20;;;14.30;48.60;;;;;;5068883;28;20196;-79
2022/03/26 09:22:56;;;;;;;33.60;20.20;;;14.40;47.70;;;;;;5068719;28;20201;-79
2022/03/26 09:25:22;;;;;;;31.83;19.93;;;14.50;47.50;;;;;;5070039;28;20189;-80
2022/03/26 09:27:49;;;;;;;33.23;20.43;;;14.60;47.30;;;;;;5070811;28;20181;-80
2022/03/26 09:30:16;;;;;;;33.07;20.37;;;14.70;47.10;;;;;;5068979;28;20639;-79
2022/03/26 09:32:45;;;;;;;26.23;18.67;;;14.70;47.20;;;;;;5071303;28;20197;-80
2022/03/26 09:35:13;;;;;;;29.47;19.57;;;14.90;47.30;;;;;;5067930;28;20235;-81
2022/03/26 09:37:40;;;;;;;26.80;18.93;;;15.00;47.60;;;;;;5068106;28;20205;-79
2022/03/26 09:40:07;;;;;;;29.63;19.77;;;15.20;46.70;;;;;;5071328;28;20260;-79
2022/03/26 09:42:36;;;;;;;34.77;20.33;;;15.30;45.70;;;;;;5070690;28;20224;-79
2022/03/26 09:45:05;;;;;;;31.53;19.50;;;15.40;45.50;;;;;;5071641;28;20187;-79
2022/03/26 09:47:35;;;;;;;30.00;19.10;;;15.50;45.30;;;;;;5070586;28;20218;-79
2022/03/26 09:50:03;;;;;;;31.40;20.57;;;15.60;44.80;;;;;;5070817;28;20310;-79
2022/03/26 09:52:29;;;;;;;28.23;18.87;;;15.80;43.70;;;;;;5070036;28;20262;-80
2022/03/26 09:54:59;;;;;;;30.10;18.53;;;16.00;42.70;;;;;;5070872;28;20201;-79
2022/03/26 09:57:25;;;;;;;29.13;18.37;;;16.10;42.20;;;;;;5070746;28;20238;-79
2022/03/26 09:59:51;;;;;;;28.50;18.37;;;;;;;;;;5067344;28;20650;-79
2022/03/26 10:02:17;;;;;;;28.90;18.60;;;;;;;;;;5069470;28;20201;-79
2022/03/26 10:04:44;;;;;;;28.90;17.97;;;;;;;;;;5069939;28;20181;-79
2022/03/26 10:07:11;;;;;;;25.40;17.03;;;;;;;;;;5070003;28;20184;-79
2022/03/26 10:09:46;;;;;;;27.37;18.33;;;;;;;;;;5068613;28;20218;-79
2022/03/26 10:12:22;;;;;;;30.50;18.30;;;;;;;;;;5070973;28;20258;-79
2022/03/26 10:14:49;;;;;;;31.83;18.77;;;;;;;;;;5071058;28;20643;-79
2022/03/26 10:17:17;;;;;;;30.33;18.13;;;;;;;;;;5070928;28;20516;-79
2022/03/26 10:19:44;;;;;;;30.73;18.97;;;;;;;;;;5070065;28;20208;-79
2022/03/26 10:22:25;;;;;;;29.07;18.67;;;;;;;;;;5070826;28;20707;-79
2022/03/26 10:24:52;;;;;;;29.50;19.37;;;;;;;;;;5071252;28;20250;-80
2022/03/26 10:27:18;;;;;;;28.50;18.67;;;;;;;;;;5071087;28;20188;-79
2022/03/26 10:29:48;;;;;;;32.37;18.83;;;;;;;;;;5074715;28;20184;-80
2022/03/26 10:32:40;;;;;;;28.53;17.03;;;;;;;;;;5069267;28;20260;-79
2022/03/26 10:35:07;;;;;;;26.47;17.43;;;;;;;;;;5061487;28;20616;-80
2022/03/26 10:37:42;;;;;;;26.77;17.67;;;;;;;;;;5070924;28;20246;-79
2022/03/26 10:40:29;;;;;;;24.13;18.10;;;;;;;;;;5069998;28;20185;-79
2022/03/26 10:42:56;;;;;;;28.33;19.03;;;;;;;;;;5070822;28;20239;-78
2022/03/26 10:45:23;;;;;;;28.20;19.17;;;;;;;;;;5066990;28;20569;-80
2022/03/26 10:47:52;;;;;;;28.27;19.07;;;;;;;;;;5070576;28;20185;-80
2022/03/26 10:50:18;;;;;;;26.83;18.90;;;;;;;;;;5069852;28;20228;-79
2022/03/26 10:52:45;;;;;;;26.30;17.30;;;;;;;;;;5071898;28;20205;-79
2022/03/26 10:55:18;;;;;;;27.17;19.47;;;;;;;;;;5074962;28;20248;-81
2022/03/26 10:57:46;;;;;;;26.23;17.93;;;;;;;;;;5074236;28;20201;-81
2022/03/26 11:00:14;;;;;;;26.53;18.10;;;;;;;;;;5077468;28;20189;-83
2022/03/26 11:02:41;;;;;;;26.40;16.87;;;;;;;;;;5066027;28;20204;-80
2022/03/26 11:05:08;;;;;;;27.10;17.27;;;;;;;;;;5073054;28;20187;-78
2022/03/26 11:07:37;;;;;;;24.33;16.43;;;;;;;;;;5072184;28;20185;-81
2022/03/26 11:10:04;;;;;;;28.13;17.90;;;;;;;;;;5074862;28;20169;-80
2022/03/26 11:12:31;;;;;;;26.73;17.43;;;;;;;;;;5076376;28;20201;-79
2022/03/26 11:14:58;;;;;;;26.17;17.57;;;;;;;;;;5069682;28;20204;-81
2022/03/26 11:17:34;;;;;;;25.80;17.60;;;;;;;;;;5075491;28;20664;-81
2022/03/26 11:20:24;;;;;;;23.47;16.60;;;;;;;;;;5076675;28;20267;-81
2022/03/26 11:23:09;;;;;;;23.50;16.37;;;;;;;;;;5073325;28;20564;-82
2022/03/26 11:25:56;;;;;;;21.23;15.53;;;;;;;;;;5086928;28;20660;-82
2022/03/26 11:28:28;;;;;;;22.63;16.23;;;;;;;;;;5076026;28;20189;-82
2022/03/26 11:31:02;;;;;;;23.27;15.63;;;;;;;;;;5054671;28;20533;-83
2022/03/26 11:33:34;;;;;;;25.10;16.93;;;;;;;;;;5063800;28;20217;-85
2022/03/26 11:36:02;;;;;;;22.03;16.03;;;;;;;;;;5074839;28;20233;-84
2022/03/26 11:38:29;;;;;;;24.53;16.50;;;;;;;;;;5062046;28;20191;-85
2022/03/26 11:41:06;;;;;;;20.10;15.37;;;;;;;;;;5057420;28;20193;-81
2022/03/26 11:43:44;;;;;;;22.77;16.47;;;;;;;;;;5075479;28;20250;-81
2022/03/26 11:51:51;;;;;;;23.47;15.67;;;;;;;;;;5071751;28;20181;-82
2022/03/26 11:54:18;;;;;;;22.43;15.90;;;;;;;;;;5078155;28;20204;-79
2022/03/26 11:56:47;;;;;;;21.83;15.53;;;;;;;;;;5074686;28;20185;-79
2022/03/26 11:59:16;;;;;;;23.57;14.83;;;;;;;;;;5075736;28;20200;-81
2022/03/26 12:01:43;;;;;;;23.00;16.20;;;;;;;;;;5076369;28;20193;-79
2022/03/26 12:04:10;;;;;;;18.97;13.83;;;;;;;;;;5072597;28;20196;-79
2022/03/26 12:06:47;;;;;;;19.27;14.80;;;;;;;;;;5048771;28;20193;-79
2022/03/26 12:09:29;;;;;;;20.07;14.87;;;;;;;;;;5070060;28;20234;-79
2022/03/26 12:12:05;;;;;;;21.73;14.70;;;;;;;;;;5071559;28;20177;-80
2022/03/26 12:14:31;;;;;;;22.93;14.50;;;;;;;;;;5072563;28;20203;-79
2022/03/26 12:16:58;;;;;;;20.07;14.33;;;;;;;;;;5072408;28;20177;-80
2022/03/26 12:19:41;;;;;;;21.13;14.80;;;;;;;;;;5073411;28;20183;-82
2022/03/26 12:22:20;;;;;;;17.63;13.37;;;;;;;;;;5070230;28;20177;-83
2022/03/26 12:24:47;;;;;;;17.93;12.60;;;;;;;;;;5069616;28;20181;-80
2022/03/26 12:27:14;;;;;;;22.07;13.00;;;;;;;;;;5072548;28;20182;-80
2022/03/26 12:29:40;;;;;;;17.50;12.47;;;;;;;;;;5069918;28;20188;-80
2022/03/26 12:32:07;;;;;;;15.20;12.23;;;;;;;;;;5068837;28;20649;-80
2022/03/26 12:34:33;;;;;;;17.83;13.00;;;;;;;;;;5067723;28;20692;-80
2022/03/26 12:37:00;;;;;;;17.27;12.30;;;;;;;;;;5072294;28;20181;-80
2022/03/26 12:39:26;;;;;;;16.60;11.70;;;;;;;;;;5067043;28;20176;-80
2022/03/26 12:41:52;;;;;;;16.57;11.17;;;;;;;;;;5068968;28;20230;-79
2022/03/26 12:44:19;;;;;;;16.27;12.73;;;;;;;;;;5066169;28;20193;-80
2022/03/26 12:46:48;;;;;;;18.60;13.73;;;;;;;;;;5073873;28;20177;-80
2022/03/26 12:49:18;;;;;;;17.63;12.60;;;;;;;;;;5069259;28;20265;-80
2022/03/26 12:51:45;;;;;;;18.90;12.23;;;;;;;;;;5072677;28;20564;-80
2022/03/26 12:54:13;;;;;;;17.20;11.73;;;;;;;;;;5074852;28;20274;-79
2022/03/26 12:56:39;;;;;;;18.03;11.47;;;;;;;;;;5058819;28;20260;-80
2022/03/26 12:59:05;;;;;;;16.27;11.03;;;;;;;;;;5071167;28;20192;-80
2022/03/26 13:01:31;;;;;;;15.13;10.30;;;;;;;;;;5073791;28;20182;-80
2022/03/26 13:03:57;;;;;;;18.97;11.00;;;;;;;;;;5084196;28;20201;-80
2022/03/26 13:06:24;;;;;;;14.90;10.50;;;;;;;;;;5059238;28;20274;-80
2022/03/26 13:08:52;;;;;;;14.47;10.90;;;;;;;;;;5073436;28;20185;-79
2022/03/26 13:11:19;;;;;;;14.63;10.47;;;;;;;;;;5073738;28;20227;-80
2022/03/26 13:13:49;;;;;;;13.97;11.20;;;;;;;;;;5072321;28;20197;-80
2022/03/26 13:16:18;;;;;;;16.50;10.67;;;;;;;;;;5063549;28;20860;-80
2022/03/26 13:18:49;;;;;;;21.00;11.33;;;;;;;;;;5059698;28;20193;-80
2022/03/26 13:21:16;;;;;;;15.93;11.87;;;;;;;;;;5069489;28;20186;-79
2022/03/26 13:24:18;;;;;;;14.67;10.87;;;;;;;;;;5067765;28;20217;-80
2022/03/26 13:26:47;;;;;;;15.67;11.33;;;;;;;;;;5012626;28;20190;-79
2022/03/26 13:29:37;;;;;;;14.13;10.13;;;;;;;;;;5061955;28;20613;-79
2022/03/26 13:32:05;;;;;;;16.43;10.73;;;;;;;;;;5066149;28;20561;-80
2022/03/26 13:34:34;;;;;;;18.10;11.17;;;;;;;;;;5070425;28;20210;-80
2022/03/26 13:37:10;;;;;;;14.03;10.10;;;;;;;;;;5066994;28;20190;-79
2022/03/26 13:39:40;;;;;;;12.87;10.10;;;;;;;;;;5068364;28;20184;-80
2022/03/26 13:42:10;;;;;;;14.07;9.53;;;;;;;;;;5071619;28;20266;-79
2022/03/26 13:44:37;;;;;;;12.97;10.03;;;;;;;;;;5072030;28;20214;-80
2022/03/26 13:47:04;;;;;;;14.93;9.67;;;;;;;;;;5073424;28;20709;-80
2022/03/26 13:49:31;;;;;;;12.23;9.57;;;;;;;;;;5073027;28;20183;-81
2022/03/26 13:51:59;;;;;;;13.97;10.87;;;;;;;;;;5072175;28;20192;-80
2022/03/26 13:54:43;;;;;;;18.43;11.03;;;;;;;;;;5074811;28;20209;-80
2022/03/26 13:57:09;;;;;;;15.30;10.63;;;;;;;;;;5072904;28;20258;-80
2022/03/26 13:59:37;;;;;;;16.20;11.00;;;;;;;;;;5066741;28;20179;-80
2022/03/26 14:02:04;;;;;;;14.80;9.80;;;;;;;;;;5067245;28;20177;-80
2022/03/26 14:04:35;;;;;;;16.73;10.70;;;;;;;;;;5069520;28;20188;-80
2022/03/26 14:07:01;;;;;;;12.20;9.63;;;;;;;;;;5067066;28;20195;-80
2022/03/26 14:09:30;;;;;;;15.87;9.97;;;;;;;;;;5062417;28;20205;-80
2022/03/26 14:11:56;;;;;;;14.80;10.13;;;;;;;;;;5065822;28;20183;-81
2022/03/26 14:14:22;;;;;;;15.43;9.63;;;;;;;;;;5068455;28;20254;-80
2022/03/26 14:16:49;;;;;;;15.00;9.57;;;;;;;;;;5061319;28;20180;-80